Time;durP1;ratioP1;P1;durP2;ratioP2;P2;SDS_P1;SDS_P2;PMS_P1;PMS_P2;Temp;Humidity;BMP_temperature;BMP_pressure;BME280_temperature;BME280_humidity;BME280_pressure;Samples;Min_cycle;Max_cycle;Signal;HPM_P1;HPM_P2
2023/05/08 00:01:25;;;;;;;10.48;6.47;;;;;;;;;;5065281;28;20530;-83
2023/05/08 00:03:57;;;;;;;9.88;7.93;;;;;;;;;;5056288;28;20469;-82
2023/05/08 00:06:23;;;;;;;11.82;7.72;;;;;;;;;;5057390;28;20095;-82
2023/05/08 00:08:50;;;;;;;9.40;6.93;;;;;;;;;;5058761;28;20464;-81
2023/05/08 00:11:17;;;;;;;10.55;7.70;;;;;;;;;;5055844;28;20051;-82
2023/05/08 00:13:45;;;;;;;10.15;7.05;;;;;;;;;;5056896;28;20442;-83
2023/05/08 00:16:12;;;;;;;9.00;7.18;;;;;;;;;;5057286;28;20113;-81
2023/05/08 00:18:39;;;;;;;10.60;7.22;;;;;;;;;;5057549;28;20139;-84
2023/05/08 00:21:07;;;;;;;11.32;7.65;;;;;;;;;;5057892;28;20041;-83
2023/05/08 00:23:34;;;;;;;9.40;6.97;;;;;;;;;;5055355;28;20136;-83
2023/05/08 00:26:00;;;;;;;10.18;7.78;;;;;;;;;;5056820;28;20518;-85
2023/05/08 00:28:27;;;;;;;10.15;7.90;;;;;;;;;;5056283;28;20045;-84
2023/05/08 00:30:59;;;;;;;10.35;7.30;;;;;;;;;;5058982;28;20076;-82
2023/05/08 00:33:26;;;;;;;11.30;8.55;;;;;;;;;;5060140;28;20105;-83
2023/05/08 00:35:59;;;;;;;11.07;7.70;;;;;;;;;;5058807;28;20098;-83
2023/05/08 00:38:27;;;;;;;11.20;7.88;;;;;;;;;;5048773;28;20087;-83
2023/05/08 00:40:57;;;;;;;10.13;7.80;;;;;;;;;;5041291;28;20113;-82
2023/05/08 00:43:26;;;;;;;10.23;8.37;;;;;;;;;;5043327;28;20095;-82
2023/05/08 00:45:59;;;;;;;9.13;7.07;;;;;;;;;;5043415;28;20076;-82
2023/05/08 00:48:32;;;;;;;10.85;7.80;;;;;;;;;;5040918;28;20049;-82
2023/05/08 00:51:00;;;;;;;10.98;8.05;;;;;;;;;;5037959;28;20149;-82
2023/05/08 00:53:30;;;;;;;10.85;7.95;;;;;;;;;;5037984;28;20076;-82
2023/05/08 00:55:58;;;;;;;11.80;7.80;;;;;;;;;;5038641;28;20461;-82
2023/05/08 00:58:26;;;;;;;10.73;7.40;;;;;;;;;;5037633;28;20088;-82
2023/05/08 01:00:55;;;;;;;10.95;7.75;;;;;;;;;;5037499;28;20076;-81
2023/05/08 01:03:23;;;;;;;10.48;8.10;;;;;;;;;;5054184;28;20124;-82
2023/05/08 01:05:49;;;;;;;11.13;8.23;;;;;;;;;;5057078;28;20107;-82
2023/05/08 01:08:16;;;;;;;12.30;8.60;;;;;;;;;;5056988;28;20041;-82
2023/05/08 01:10:49;;;;;;;13.18;8.10;;;;;;;;;;5055460;28;20107;-83
2023/05/08 01:13:28;;;;;;;11.65;8.18;;;;;;;;;;5055782;28;20491;-82
2023/05/08 01:16:06;;;;;;;11.60;8.05;;;;;;;;;;5054876;28;20468;-82
2023/05/08 01:18:38;;;;;;;11.20;8.15;;;;;;;;;;5055125;28;20045;-82
2023/05/08 01:21:12;;;;;;;10.95;8.07;;;;;;;;;;5055080;28;20106;-80
2023/05/08 01:24:16;;;;;;;11.80;8.40;;;;;;;;;;5055850;28;20049;-81
2023/05/08 01:27:20;;;;;;;11.50;8.45;;;;;;;;;;5055182;28;20131;-82
2023/05/08 01:30:13;;;;;;;9.90;8.68;;;;;;;;;;5055528;28;20049;-82
2023/05/08 01:32:46;;;;;;;10.77;7.57;;;;;;;;;;5055451;28;20053;-81
2023/05/08 01:35:21;;;;;;;11.40;8.20;;;;;;;;;;5056101;28;20045;-81
2023/05/08 01:37:57;;;;;;;10.48;8.60;;;;;;;;;;5060447;28;20084;-82
2023/05/08 01:40:33;;;;;;;12.90;8.55;;;;;;;;;;5061124;28;20482;-81
2023/05/08 01:43:12;;;;;;;11.05;8.32;;;;;;;;;;5071989;28;20084;-82
2023/05/08 01:45:41;;;;;;;11.65;8.88;;;;;;;;;;5080827;28;20053;-80
2023/05/08 01:48:12;;;;;;;12.68;8.65;;;;;;;;;;5073722;28;20092;-83
2023/05/08 01:50:44;;;;;;;11.82;8.88;;;;;;;;;;5059326;28;20131;-82
2023/05/08 01:53:19;;;;;;;13.40;9.75;;;;;;;;;;5058646;28;20087;-83
2023/05/08 01:55:49;;;;;;;11.57;8.25;;;;;;;;;;5058172;28;20559;-82
2023/05/08 01:58:18;;;;;;;12.60;8.77;;;;;;;;;;5059535;28;20045;-83
2023/05/08 02:00:46;;;;;;;13.07;8.55;;;;;;;;;;5070273;28;20041;-79
2023/05/08 02:03:16;;;;;;;12.63;8.15;;;;;;;;;;5079474;28;20057;-80
2023/05/08 02:05:44;;;;;;;11.63;8.68;;;;;;;;;;5078583;28;20036;-80
2023/05/08 02:08:12;;;;;;;13.90;9.18;;;;;;;;;;5068254;28;20045;-83
2023/05/08 02:10:41;;;;;;;12.98;9.20;;;;;;;;;;5063375;28;20071;-82
2023/05/08 02:13:09;;;;;;;11.60;8.00;;;;;;;;;;5062695;28;20064;-82
2023/05/08 02:15:38;;;;;;;12.23;8.88;;;;;;;;;;5060209;28;20107;-82
2023/05/08 02:18:08;;;;;;;12.15;8.65;;;;;;;;;;5057035;28;20080;-84
2023/05/08 02:20:37;;;;;;;10.48;7.90;;;;;;;;;;5056740;28;20132;-82
2023/05/08 02:23:05;;;;;;;10.35;7.75;;;;;;;;;;5057153;28;20049;-82
2023/05/08 02:25:33;;;;;;;10.68;7.80;;;;;;;;;;5057816;28;20044;-80
2023/05/08 02:28:00;;;;;;;10.75;7.90;;;;;;;;;;5058528;28;20111;-83
2023/05/08 02:30:28;;;;;;;11.00;7.38;;;;;;;;;;5057336;28;20183;-82
2023/05/08 02:32:56;;;;;;;9.75;6.82;;;;;;;;;;5057961;28;20045;-83
2023/05/08 02:35:26;;;;;;;11.02;7.43;;;;;;;;;;5058036;28;20055;-82
2023/05/08 02:37:56;;;;;;;11.25;7.90;;;;;;;;;;5058422;28;20068;-82
2023/05/08 02:40:26;;;;;;;9.95;7.75;;;;;;;;;;5057399;28;20077;-82
2023/05/08 02:42:53;;;;;;;11.10;7.70;;;;;;;;;;5077140;28;20051;-81
2023/05/08 02:45:20;;;;;;;10.98;7.70;;;;;;;;;;5079366;28;20068;-80
2023/05/08 02:48:04;;;;;;;11.35;8.30;;;;;;;;;;5078949;28;20104;-80
2023/05/08 02:50:37;;;;;;;11.07;7.80;;;;;;;;;;5078613;28;20064;-82
2023/05/08 02:53:10;;;;;;;11.35;8.35;;;;;;;;;;5059015;28;20069;-83
2023/05/08 02:55:43;;;;;;;11.02;7.82;;;;;;;;;;5071439;28;20032;-79
2023/05/08 02:58:17;;;;;;;10.00;7.57;;;;;;;;;;5077569;28;20041;-81
2023/05/08 03:00:48;;;;;;;10.40;7.03;;;;;;;;;;5076193;28;20045;-79
2023/05/08 03:03:21;;;;;;;10.68;7.07;;;;;;;;;;5068029;28;20044;-82
2023/05/08 03:05:52;;;;;;;10.00;7.38;;;;;;;;;;5061425;28;20144;-83
2023/05/08 03:08:25;;;;;;;10.98;7.57;;;;;;;;;;5056849;28;20052;-82
2023/05/08 03:10:55;;;;;;;9.10;6.88;;;;;;;;;;5056679;28;20049;-83
2023/05/08 03:13:22;;;;;;;10.10;7.33;;;;;;;;;;5057454;28;20052;-83
2023/05/08 03:15:54;;;;;;;8.77;6.57;;;;;;;;;;5057439;28;20304;-83
2023/05/08 03:18:25;;;;;;;9.23;6.80;;;;;;;;;;5059233;28;20045;-83
2023/05/08 03:20:55;;;;;;;10.45;6.72;;;;;;;;;;5056034;28;20053;-83
2023/05/08 03:23:26;;;;;;;11.25;6.40;;;;;;;;;;5057005;28;20056;-82
2023/05/08 03:25:53;;;;;;;9.40;6.82;;;;;;;;;;5056552;28;20124;-83
2023/05/08 03:28:22;;;;;;;10.52;6.85;;;;;;;;;;5056494;28;20041;-83
2023/05/08 03:30:50;;;;;;;9.68;7.28;;;;;;;;;;5056526;28;20487;-83
2023/05/08 03:33:17;;;;;;;11.43;7.25;;;;;;;;;;5056702;28;20155;-84
2023/05/08 03:35:46;;;;;;;11.85;7.43;;;;;;;;;;5056779;28;20099;-83
2023/05/08 03:38:13;;;;;;;10.05;7.03;;;;;;;;;;5057977;28;20049;-83
2023/05/08 03:40:42;;;;;;;10.38;6.70;;;;;;;;;;5056955;28;20059;-83
2023/05/08 03:43:09;;;;;;;11.45;7.68;;;;;;;;;;5061265;28;20055;-82
2023/05/08 03:45:42;;;;;;;8.07;6.78;;;;;;;;;;5057326;28;20049;-83
2023/05/08 03:48:09;;;;;;;9.55;6.97;;;;;;;;;;5057644;28;20057;-83
2023/05/08 03:50:37;;;;;;;10.70;7.30;;;;;;;;;;5057837;28;20056;-83
2023/05/08 03:53:04;;;;;;;10.98;7.40;;;;;;;;;;5059755;28;20492;-83
2023/05/08 03:55:32;;;;;;;9.90;6.90;;;;;;;;;;5060466;28;20474;-84
2023/05/08 03:58:07;;;;;;;10.32;7.53;;;;;;;;;;5056305;28;20047;-84
2023/05/08 04:00:43;;;;;;;11.57;8.23;;;;;;;;;;5056580;28;20084;-83
2023/05/08 04:03:21;;;;;;;9.55;7.18;;;;;;;;;;5055860;28;20088;-83
2023/05/08 04:05:58;;;;;;;8.65;6.70;;;;;;;;;;5056556;28;20049;-83
2023/05/08 04:08:27;;;;;;;10.80;6.78;;;;;;;;;;5057215;28;20044;-82
2023/05/08 04:11:04;;;;;;;10.70;6.93;;;;;;;;;;5057558;28;20052;-82
2023/05/08 04:13:36;;;;;;;9.38;6.43;;;;;;;;;;5058202;28;20080;-84
2023/05/08 04:16:07;;;;;;;9.13;6.95;;;;;;;;;;5058273;28;20053;-84
2023/05/08 04:18:36;;;;;;;;;;;;;;;;;;5058171;28;20132;-81
2023/05/08 04:21:05;;;;;;;12.40;7.90;;;;;;;;;;5058046;28;19928;-83
2023/05/08 04:23:34;;;;;;;11.35;7.50;;;;;;;;;;5058455;28;20084;-81
2023/05/08 04:26:03;;;;;;;10.85;8.05;;;;;;;;;;5058513;28;20128;-84
2023/05/08 04:28:30;;;;;;;10.43;7.65;;;;;;;;;;5060006;28;20060;-83
2023/05/08 04:30:58;;;;;;;11.98;7.57;;;;;;;;;;5060340;28;20041;-84
2023/05/08 04:33:25;;;;;;;10.98;7.10;;;;;;;;;;5059741;28;20053;-83
2023/05/08 04:35:52;;;;;;;10.75;7.53;;;;;;;;;;5059249;28;20052;-83
2023/05/08 04:38:19;;;;;;;9.38;7.40;;;;;;;;;;5058289;28;20053;-82
2023/05/08 04:40:45;;;;;;;9.70;6.97;;;;;;;;;;5058233;28;20049;-83
2023/05/08 04:43:12;;;;;;;12.77;7.95;;;;;;;;;;5059178;28;20053;-83
2023/05/08 04:45:39;;;;;;;10.07;7.40;;;;;;;;;;5067518;28;20036;-83
2023/05/08 04:48:07;;;;;;;10.85;7.75;;;;;;;;;;5077354;28;20036;-80
2023/05/08 04:50:34;;;;;;;10.95;7.50;;;;;;;;;;5072579;28;20049;-83
2023/05/08 04:53:00;;;;;;;10.23;7.07;;;;;;;;;;5066049;22;20132;-79
2023/05/08 04:55:27;;;;;;;12.85;6.97;;;;;;;;;;5012673;28;20054;-81
2023/05/08 04:57:53;;;;;;;11.43;7.25;;;;;;;;;;5013522;28;20042;-78
2023/05/08 05:00:20;;;;;;;10.10;7.35;;;;;;;;;;5014996;28;20478;-78
2023/05/08 05:02:47;;;;;;;11.80;7.60;;;;;;;;;;5013534;28;20133;-79
2023/05/08 05:05:15;;;;;;;11.70;7.32;;;;;;;;;;5014211;28;20046;-79
2023/05/08 05:07:42;;;;;;;10.77;7.05;;;;;;;;;;5014028;28;20053;-79
2023/05/08 05:10:09;;;;;;;11.35;8.18;;;;;;;;;;5013663;28;20085;-79
2023/05/08 05:12:37;;;;;;;10.32;7.30;;;;;;;;;;5013951;28;20081;-79
2023/05/08 05:15:04;;;;;;;12.52;8.23;;;;;;;;;;5014801;28;20081;-79
2023/05/08 05:17:32;;;;;;;10.23;7.38;;;;;;;;;;5016778;28;20129;-78
2023/05/08 05:19:58;;;;;;;10.13;7.05;;;;;;;;;;5018286;28;20046;-77
2023/05/08 05:22:27;;;;;;;10.20;7.38;;;;;;;;;;5017383;28;20073;-79
2023/05/08 05:24:54;;;;;;;8.70;6.57;;;;;;;;;;5017082;28;20057;-80
2023/05/08 05:27:20;;;;;;;10.57;7.60;;;;;;;;;;5018405;28;20516;-79
2023/05/08 05:29:47;;;;;;;11.13;7.65;;;;;;;;;;5018481;28;20052;-79
2023/05/08 05:32:14;;;;;;;9.73;7.30;;;;;;;;;;5018807;28;20054;-79
2023/05/08 05:34:40;;;;;;;10.65;7.55;;;;;;;;;;5019958;28;20052;-79
2023/05/08 05:37:07;;;;;;;9.48;7.05;;;;;;;;;;5015462;28;20484;-79
2023/05/08 05:39:36;;;;;;;11.50;8.00;;;;;;;;;;5015628;28;20488;-79
2023/05/08 05:42:03;;;;;;;14.85;8.43;;;;;;;;;;5014942;28;20072;-80
2023/05/08 05:44:30;;;;;;;11.45;7.57;;;;;;;;;;5014901;28;20050;-79
2023/05/08 05:46:56;;;;;;;11.20;7.78;;;;;;;;;;5015137;28;20069;-80
2023/05/08 05:49:23;;;;;;;9.73;6.97;;;;;;;;;;5021170;28;20108;-79
2023/05/08 05:51:50;;;;;;;8.85;6.85;;;;;;;;;;5035034;28;20080;-80
2023/05/08 05:54:16;;;;;;;9.80;6.82;;;;;;;;;;5019556;28;20052;-80
2023/05/08 05:56:44;;;;;;;10.90;7.60;;;;;;;;;;5020141;28;20081;-79
2023/05/08 05:59:11;;;;;;;10.50;7.07;;;;;;;;;;5021328;28;20515;-80
2023/05/08 06:01:38;;;;;;;11.45;7.80;;;;;;;;;;5035465;28;20034;-79
2023/05/08 06:04:05;;;;;;;12.52;7.50;;;;;;;;;;5034528;28;20541;-79
2023/05/08 06:06:31;;;;;;;11.77;8.07;;;;;;;;;;5020990;28;20101;-80
2023/05/08 06:08:58;;;;;;;10.93;6.88;;;;;;;;;;5019501;28;20046;-79
2023/05/08 06:11:25;;;;;;;11.68;7.97;;;;;;;;;;5024464;28;20046;-80
2023/05/08 06:13:53;;;;;;;11.15;7.70;;;;;;;;;;5027739;28;20042;-79
2023/05/08 06:16:21;;;;;;;11.80;7.53;;;;;;;;;;5019302;28;20046;-80
2023/05/08 06:18:48;;;;;;;11.95;7.82;;;;;;;;;;5019260;28;20042;-80
2023/05/08 06:21:15;;;;;;;10.82;7.80;;;;;;;;;;5019315;28;20336;-80
2023/05/08 06:23:42;;;;;;;12.25;8.40;;;;;;;;;;5022235;28;20050;-81
2023/05/08 06:26:09;;;;;;;11.88;7.68;;;;;;;;;;5023608;28;20076;-80
2023/05/08 06:28:36;;;;;;;9.68;7.30;;;;;;;;;;5023514;28;20080;-78
2023/05/08 06:31:04;;;;;;;11.98;8.25;;;;;;;;;;5028372;28;20069;-79
2023/05/08 06:33:31;;;;;;;11.82;8.15;;;;;;;;;;5030509;28;20077;-79
2023/05/08 06:35:57;;;;;;;10.90;8.00;;;;;;;;;;5024104;28;20046;-81
2023/05/08 06:38:24;;;;;;;11.02;7.90;;;;;;;;;;5021926;28;20128;-80
2023/05/08 06:40:51;;;;;;;10.77;8.18;;;;;;;;;;5021766;28;20070;-80
2023/05/08 06:43:17;;;;;;;11.85;8.10;;;;;;;;;;5022948;28;20050;-81
2023/05/08 06:45:44;;;;;;;14.43;8.18;;;;;;;;;;5023215;28;20125;-79
2023/05/08 06:48:12;;;;;;;13.18;8.27;;;;;;;;;;5022566;28;20045;-79
2023/05/08 06:50:39;;;;;;;10.68;8.20;;;;;;;;;;5021073;28;20148;-80
2023/05/08 06:53:06;;;;;;;13.18;8.70;;;;;;;;;;5034616;28;20073;-79
2023/05/08 06:55:33;;;;;;;12.02;8.93;;;;;;;;;;5039681;28;20046;-79
2023/05/08 06:57:59;;;;;;;12.77;8.90;;;;;;;;;;5038873;28;20133;-79
2023/05/08 07:00:26;;;;;;;11.57;8.10;;;;;;;;;;5038691;28;20052;-79
2023/05/08 07:02:55;;;;;;;13.98;8.52;;;;;;;;;;5027542;28;20129;-79
2023/05/08 07:05:24;;;;;;;12.60;8.27;;;;;;;;;;5019954;28;20129;-80
2023/05/08 07:07:52;;;;;;;11.05;8.00;;;;;;;;;;5020508;28;20041;-78
2023/05/08 07:10:21;;;;;;;11.98;9.15;;;;;;;;;;5019572;28;20080;-77
2023/05/08 07:12:48;;;;;;;12.30;8.27;;;;;;;;;;5022120;28;20046;-78
2023/05/08 07:15:15;;;;;;;13.13;8.55;;;;;;;;;;5025468;28;20074;-79
2023/05/08 07:17:42;;;;;;;14.20;8.27;;;;;;;;;;5024286;28;20053;-79
2023/05/08 07:20:09;;;;;;;11.95;8.63;;;;;;;;;;5018900;28;20042;-79
2023/05/08 07:22:37;;;;;;;13.10;8.77;;;;;;;;;;5018141;28;20464;-79
2023/05/08 07:25:04;;;;;;;10.85;7.85;;;;;;;;;;5019631;28;20531;-79
2023/05/08 07:27:31;;;;;;;11.95;8.35;;;;;;;;;;5020943;28;20125;-79
2023/05/08 07:30:02;;;;;;;11.20;8.25;;;;;;;;;;5021632;28;20069;-80
2023/05/08 07:32:29;;;;;;;12.35;7.78;;;;;;;;;;5021196;28;20046;-79
2023/05/08 07:34:56;;;;;;;11.07;7.93;;;;;;;;;;5018218;28;20042;-78
2023/05/08 07:37:23;;;;;;;11.40;7.82;;;;;;;;;;5018938;28;20046;-81
2023/05/08 07:39:51;;;;;;;11.23;8.48;;;;;;;;;;5019429;28;20046;-81
2023/05/08 07:42:18;;;;;;;12.32;8.30;;;;;;;;;;5018984;28;20042;-79
2023/05/08 07:44:44;;;;;;;16.83;8.85;;;;;;;;;;5019782;28;20081;-79
2023/05/08 07:47:11;;;;;;;11.30;7.65;;;;;;;;;;5019444;28;20046;-79
2023/05/08 07:49:38;;;;;;;11.65;8.75;;;;;;;;;;5022600;28;20428;-80
2023/05/08 07:52:05;;;;;;;13.50;8.68;;;;;;;;;;5025510;28;20061;-83
2023/05/08 07:54:32;;;;;;;12.55;8.63;;;;;;;;;;5029203;28;20046;-81
2023/05/08 07:57:00;;;;;;;14.90;9.98;;;;;;;;;;5029908;28;20056;-80
2023/05/08 07:59:27;;;;;;;12.60;8.55;;;;;;;;;;5019757;28;20046;-78
2023/05/08 08:01:53;;;;;;;12.27;9.13;;;;;;;;;;5017236;28;20048;-77
2023/05/08 08:04:20;;;;;;;11.68;9.20;;;;;;;;;;5016438;28;20081;-80
2023/05/08 08:06:47;;;;;;;16.15;9.80;;;;;;;;;;5017626;28;20456;-80
2023/05/08 08:09:13;;;;;;;11.82;8.57;;;;;;;;;;5016832;28;20428;-80
2023/05/08 08:11:40;;;;;;;13.40;9.23;;;;;;;;;;5015809;28;20088;-80
2023/05/08 08:14:08;;;;;;;11.45;8.50;;;;;;;;;;5014599;28;20042;-78
2023/05/08 08:16:35;;;;;;;14.05;9.88;;;;;;;;;;5016301;28;20207;-80
2023/05/08 08:19:02;;;;;;;11.40;9.05;;;;;;;;;;5016625;28;20092;-80
2023/05/08 08:21:29;;;;;;;10.90;8.43;;;;;;;;;;5014728;28;20042;-80
2023/05/08 08:23:57;;;;;;;12.73;9.25;;;;;;;;;;5023275;28;20072;-81
2023/05/08 08:26:24;;;;;;;13.57;10.98;;;;;;;;;;5035242;28;20042;-80
2023/05/08 08:28:51;;;;;;;13.13;10.15;;;;;;;;;;5035660;28;20114;-79
2023/05/08 08:31:19;;;;;;;13.55;9.73;;;;;;;;;;5034861;28;20041;-80
2023/05/08 08:33:49;;;;;;;11.77;8.70;;;;;;;;;;5035457;28;20614;-79
2023/05/08 08:36:16;;;;;;;12.83;9.63;;;;;;;;;;5035290;28;20084;-80
2023/05/08 08:38:42;;;;;;;12.77;8.90;;;;;;;;;;5034797;28;20385;-79
2023/05/08 08:41:09;;;;;;;12.55;8.73;;;;;;;;;;5034977;28;20076;-81
2023/05/08 08:43:38;;;;;;;13.77;9.93;;;;;;;;;;5035871;28;20133;-81
2023/05/08 08:46:11;;;;;;;15.20;10.82;;;;;;;;;;5034671;28;20075;-81
2023/05/08 08:48:43;;;;;;;13.73;10.20;;;;;;;;;;5035081;28;20049;-79
2023/05/08 08:51:14;;;;;;;13.73;9.73;;;;;;;;;;5034772;28;20076;-80
2023/05/08 08:53:44;;;;;;;17.27;10.40;;;;;;;;;;5034846;28;20099;-80
2023/05/08 08:56:12;;;;;;;15.38;10.40;;;;;;;;;;5034970;28;20045;-81
2023/05/08 08:58:48;;;;;;;13.50;9.63;;;;;;;;;;5035330;28;20743;-79
2023/05/08 09:01:17;;;;;;;12.20;10.32;;;;;;;;;;5035838;28;20081;-80
2023/05/08 09:03:46;;;;;;;13.25;10.13;;;;;;;;;;5035913;28;20129;-80
2023/05/08 09:06:13;;;;;;;15.27;11.18;;;;;;;;;;5035220;28;20587;-80
2023/05/08 09:08:40;;;;;;;12.85;9.93;;;;;;;;;;5034868;28;20045;-80
2023/05/08 09:11:07;;;;;;;13.18;9.75;;;;;;;;;;5035106;28;20052;-80
2023/05/08 09:13:34;;;;;;;14.23;10.65;;;;;;;;;;5035959;28;20109;-81
2023/05/08 09:16:01;;;;;;;16.00;11.32;;;;;;;;;;5035977;28;20081;-80
2023/05/08 09:18:27;;;;;;;12.32;10.05;;;;;;;;;;5035219;28;20100;-81
2023/05/08 09:20:57;;;;;;;12.60;9.48;;;;;;;;;;5036556;28;20096;-79
2023/05/08 09:23:23;;;;;;;13.63;10.00;;;;;;;;;;5035537;28;20519;-79
2023/05/08 09:25:50;;;;;;;13.60;10.43;;;;;;;;;;5036263;28;20075;-79
2023/05/08 09:28:18;;;;;;;14.25;10.38;;;;;;;;;;5034917;28;20185;-80
2023/05/08 09:30:55;;;;;;;13.25;10.45;;;;;;;;;;5035219;28;20073;-80
2023/05/08 09:33:24;;;;;;;13.40;9.73;;;;;;;;;;5034755;28;20050;-80
2023/05/08 09:35:50;;;;;;;15.02;10.23;;;;;;;;;;5036390;28;20050;-81
2023/05/08 09:38:35;;;;;;;14.25;11.02;;;;;;;;;;5035227;28;20133;-81
2023/05/08 09:41:09;;;;;;;15.27;10.85;;;;;;;;;;5035998;28;20045;-81
2023/05/08 09:43:37;;;;;;;14.23;10.23;;;;;;;;;;5035818;28;20128;-79
2023/05/08 09:46:23;;;;;;;13.38;10.00;;;;;;;;;;5033142;28;20041;-80
2023/05/08 09:48:50;;;;;;;15.00;11.00;;;;;;;;;;5031734;28;20137;-78
2023/05/08 09:51:17;;;;;;;13.77;10.30;;;;;;;;;;5032206;28;20041;-79
2023/05/08 09:53:45;;;;;;;13.32;10.93;;;;;;;;;;5031934;28;20050;-80
2023/05/08 09:56:11;;;;;;;15.73;11.73;;;;;;;;;;5032886;28;20455;-78
2023/05/08 09:58:39;;;;;;;14.93;10.75;;;;;;;;;;5035814;28;20045;-81
2023/05/08 10:01:06;;;;;;;14.77;11.07;;;;;;;;;;5038287;28;20045;-80
2023/05/08 10:03:48;;;;;;;16.25;11.60;;;;;;;;;;5021498;28;20068;-79
2023/05/08 10:06:15;;;;;;;14.35;11.25;;;;;;;;;;5021091;28;20086;-79
2023/05/08 10:08:43;;;;;;;15.88;11.88;;;;;;;;;;5019224;28;20049;-83
2023/05/08 10:11:18;;;;;;;15.80;11.70;;;;;;;;;;5023971;28;20501;-80
2023/05/08 10:13:45;;;;;;;15.20;11.05;;;;;;;;;;5022069;28;20135;-78
2023/05/08 10:16:15;;;;;;;16.00;11.45;;;;;;;;;;5019344;28;20624;-80
2023/05/08 10:18:45;;;;;;;;;;;;;;;;;;5018447;28;20077;-81
2023/05/08 10:21:14;;;;;;;16.95;12.25;;;;;;;;;;5021347;28;19921;-79
2023/05/08 10:23:42;;;;;;;18.73;14.13;;;;;;;;;;5022440;28;20520;-80
2023/05/08 10:26:12;;;;;;;17.45;13.07;;;;;;;;;;5020627;28;20109;-78
2023/05/08 10:28:50;;;;;;;15.45;11.35;;;;;;;;;;5018649;28;20460;-81
2023/05/08 10:31:18;;;;;;;15.50;12.32;;;;;;;;;;5021517;28;20077;-79
2023/05/08 10:33:46;;;;;;;15.15;12.20;;;;;;;;;;5025797;28;20046;-78
2023/05/08 10:36:14;;;;;;;15.77;12.52;;;;;;;;;;5019412;28;20053;-77
2023/05/08 10:38:41;;;;;;;16.77;12.43;;;;;;;;;;5019184;28;20050;-80
2023/05/08 10:41:08;;;;;;;16.80;12.80;;;;;;;;;;5019698;28;20447;-79
2023/05/08 10:43:37;;;;;;;15.60;11.50;;;;;;;;;;5019688;28;20124;-80
2023/05/08 10:46:11;;;;;;;17.45;13.07;;;;;;;;;;5019449;28;20046;-80
2023/05/08 10:48:47;;;;;;;17.00;12.75;;;;;;;;;;5019091;28;20718;-80
2023/05/08 10:51:27;;;;;;;18.55;12.68;;;;;;;;;;5019546;28;20042;-80
2023/05/08 10:56:26;;;;;;;18.02;13.50;;;;;;;;;;5075297;28;20048;-83
2023/05/08 10:58:56;;;;;;;17.27;13.02;;;;;;;;;;5065202;28;20053;-83
2023/05/08 11:01:25;;;;;;;18.73;13.77;;;;;;;;;;5060960;28;20527;-82
2023/05/08 11:03:53;;;;;;;15.07;11.88;;;;;;;;;;5059680;28;20037;-82
2023/05/08 11:06:47;;;;;;;18.55;13.07;;;;;;;;;;5059462;28;20045;-83
2023/05/08 11:09:19;;;;;;;17.15;13.18;;;;;;;;;;5058995;28;20068;-83
2023/05/08 11:11:54;;;;;;;17.92;13.13;;;;;;;;;;5059215;28;20120;-81
2023/05/08 11:14:22;;;;;;;19.58;14.75;;;;;;;;;;5059916;28;20479;-82
2023/05/08 11:17:07;;;;;;;16.95;13.95;;;;;;;;;;5063772;28;20534;-81
2023/05/08 11:19:35;;;;;;;18.17;13.95;;;;;;;;;;5062417;28;20127;-82
2023/05/08 11:22:15;;;;;;;18.92;14.77;;;;;;;;;;5072647;28;20468;-83
2023/05/08 11:24:48;;;;;;;16.65;13.45;;;;;;;;;;5079246;28;20127;-82
2023/05/08 11:27:14;;;;;;;16.85;13.10;;;;;;;;;;5078431;28;20083;-82
2023/05/08 11:29:41;;;;;;;16.42;13.55;;;;;;;;;;5078881;28;20461;-83
2023/05/08 11:32:09;;;;;;;15.68;12.18;;;;;;;;;;5085117;28;20054;-83
2023/05/08 11:34:46;;;;;;;20.60;14.45;;;;;;;;;;5093250;28;20079;-82
2023/05/08 11:37:18;;;;;;;20.35;14.73;;;;;;;;;;5086800;28;20462;-84
2023/05/08 11:39:45;;;;;;;22.30;17.00;;;;;;;;;;5081105;28;20054;-83
2023/05/08 11:42:34;;;;;;;16.10;12.95;;;;;;;;;;5077568;28;20533;-84
2023/05/08 11:45:04;;;;;;;16.48;13.23;;;;;;;;;;5090358;28;20044;-83
2023/05/08 11:47:36;;;;;;;;;;;;;;;;;;5088805;28;20110;-83
2023/05/08 11:50:03;;;;;;;15.52;11.57;;;;;;;;;;5080618;28;19960;-83
2023/05/08 11:52:32;;;;;;;17.20;13.50;;;;;;;;;;5079515;28;20101;-84
2023/05/08 11:55:03;;;;;;;17.50;13.77;;;;;;;;;;5081901;28;20075;-83
2023/05/08 11:57:30;;;;;;;18.90;13.52;;;;;;;;;;5080299;28;20127;-83
2023/05/08 11:59:57;;;;;;;15.52;12.15;;;;;;;;;;5078238;28;20127;-83
2023/05/08 12:02:36;;;;;;;15.75;12.20;;;;;;;;;;5069007;28;20427;-83
2023/05/08 12:05:03;;;;;;;16.45;12.98;;;;;;;;;;5057318;28;20096;-83
2023/05/08 12:07:30;;;;;;;18.08;12.45;;;;;;;;;;5056854;28;20520;-83
2023/05/08 12:09:57;;;;;;;14.45;12.25;;;;;;;;;;5058177;28;20127;-83
2023/05/08 12:12:35;;;;;;;15.15;12.57;;;;;;;;;;5057912;28;20045;-83
2023/05/08 12:15:06;;;;;;;15.18;12.05;;;;;;;;;;5058834;28;20056;-83
2023/05/08 12:17:33;;;;;;;16.17;12.43;;;;;;;;;;5057426;28;20566;-82
2023/05/08 12:20:09;;;;;;;15.45;11.90;;;;;;;;;;5057312;28;20114;-82
2023/05/08 12:22:36;;;;;;;16.23;13.13;;;;;;;;;;5068930;28;20117;-82
2023/05/08 12:25:04;;;;;;;14.50;11.93;;;;;;;;;;5076998;28;20041;-83
2023/05/08 12:27:30;;;;;;;16.83;13.05;;;;;;;;;;5068519;28;20561;-82
2023/05/08 12:29:57;;;;;;;15.38;12.48;;;;;;;;;;5055968;28;20129;-83
2023/05/08 12:32:24;;;;;;;16.08;13.00;;;;;;;;;;5056125;28;20388;-84
2023/05/08 12:34:51;;;;;;;17.20;13.52;;;;;;;;;;5063173;28;20039;-83
2023/05/08 12:37:27;;;;;;;14.48;11.77;;;;;;;;;;5079918;28;20041;-83
2023/05/08 12:39:53;;;;;;;15.23;12.30;;;;;;;;;;5081576;28;20044;-84
2023/05/08 12:42:20;;;;;;;15.60;12.70;;;;;;;;;;5076399;28;20147;-83
2023/05/08 12:44:50;;;;;;;13.18;10.98;;;;;;;;;;5076546;28;20048;-82
2023/05/08 12:47:18;;;;;;;16.67;13.48;;;;;;;;;;5076134;28;20048;-82
2023/05/08 12:49:47;;;;;;;16.27;13.57;;;;;;;;;;5077502;28;20076;-82
2023/05/08 12:52:15;;;;;;;14.27;12.13;;;;;;;;;;5077513;28;20561;-83
2023/05/08 12:54:47;;;;;;;18.48;14.30;;;;;;;;;;5079117;28;20120;-84
2023/05/08 12:57:16;;;;;;;15.70;12.73;;;;;;;;;;5082421;28;20051;-84
2023/05/08 12:59:44;;;;;;;15.88;12.15;;;;;;;;;;5083464;28;20044;-83
2023/05/08 13:02:16;;;;;;;14.45;11.60;;;;;;;;;;5082777;28;20044;-82
2023/05/08 13:04:42;;;;;;;17.38;13.15;;;;;;;;;;5080216;28;20087;-84
2023/05/08 13:07:09;;;;;;;14.48;12.35;;;;;;;;;;5079860;28;20044;-83
2023/05/08 13:09:36;;;;;;;17.08;13.45;;;;;;;;;;5078588;28;20498;-82
2023/05/08 13:12:05;;;;;;;16.00;12.60;;;;;;;;;;5083138;28;20096;-83
2023/05/08 13:14:32;;;;;;;17.25;13.45;;;;;;;;;;5081394;28;20056;-84
2023/05/08 13:16:59;;;;;;;17.63;13.30;;;;;;;;;;5081905;28;20044;-83
2023/05/08 13:19:26;;;;;;;15.82;12.60;;;;;;;;;;5081346;28;20056;-84
2023/05/08 13:21:54;;;;;;;17.13;13.50;;;;;;;;;;5078563;28;20037;-84
2023/05/08 13:24:21;;;;;;;15.55;12.18;;;;;;;;;;5076331;28;20048;-82
2023/05/08 13:26:48;;;;;;;15.00;12.18;;;;;;;;;;5075878;28;20083;-83
2023/05/08 13:29:16;;;;;;;14.13;11.38;;;;;;;;;;5076754;28;20047;-84
2023/05/08 13:31:43;;;;;;;14.45;12.02;;;;;;;;;;5076641;28;20045;-83
2023/05/08 13:34:09;;;;;;;14.60;11.52;;;;;;;;;;5080762;28;20168;-84
2023/05/08 13:36:36;;;;;;;16.00;11.75;;;;;;;;;;5080931;28;20040;-84
2023/05/08 13:39:03;;;;;;;16.00;11.63;;;;;;;;;;5080433;28;20076;-84
2023/05/08 13:41:29;;;;;;;14.38;11.07;;;;;;;;;;5080527;28;20268;-83
2023/05/08 13:43:56;;;;;;;14.77;11.82;;;;;;;;;;5080631;28;20056;-82
2023/05/08 13:46:25;;;;;;;14.30;10.88;;;;;;;;;;5086107;28;20044;-83
2023/05/08 13:48:51;;;;;;;13.65;10.27;;;;;;;;;;5082642;28;20090;-83
2023/05/08 13:51:25;;;;;;;10.30;8.18;;;;;;;;;;5081460;28;20072;-82
2023/05/08 13:53:51;;;;;;;15.07;10.13;;;;;;;;;;5080059;28;20051;-84
2023/05/08 13:56:18;;;;;;;16.17;9.90;;;;;;;;;;5080330;28;20502;-84
2023/05/08 13:58:45;;;;;;;12.10;8.40;;;;;;;;;;5080771;28;20051;-84
2023/05/08 14:01:11;;;;;;;13.63;9.85;;;;;;;;;;5081291;28;20064;-83
2023/05/08 14:03:39;;;;;;;14.70;10.85;;;;;;;;;;5080624;28;20095;-83
2023/05/08 14:06:06;;;;;;;14.23;11.35;;;;;;;;;;5081126;28;20094;-83
2023/05/08 14:08:33;;;;;;;13.93;11.00;;;;;;;;;;5079120;28;20075;-83
2023/05/08 14:10:59;;;;;;;15.35;12.27;;;;;;;;;;5078759;28;20128;-83
2023/05/08 14:13:26;;;;;;;15.13;11.93;;;;;;;;;;5079094;28;20594;-83
2023/05/08 14:15:53;;;;;;;13.80;11.63;;;;;;;;;;5077474;28;20419;-82
2023/05/08 14:18:19;;;;;;;16.38;12.43;;;;;;;;;;5078755;28;20125;-82
2023/05/08 14:20:47;;;;;;;15.63;12.25;;;;;;;;;;5078330;28;20076;-82
2023/05/08 14:23:14;;;;;;;14.82;12.18;;;;;;;;;;5078155;28;20164;-82
2023/05/08 14:25:41;;;;;;;13.20;10.90;;;;;;;;;;5079028;28;20104;-83
2023/05/08 14:28:07;;;;;;;19.02;13.45;;;;;;;;;;5078056;28;20606;-83
2023/05/08 14:30:34;;;;;;;17.00;13.27;;;;;;;;;;5091589;28;20047;-83
2023/05/08 14:33:01;;;;;;;17.48;13.43;;;;;;;;;;5096897;28;20063;-82
2023/05/08 14:35:27;;;;;;;16.45;12.75;;;;;;;;;;5081798;28;20036;-83
2023/05/08 14:37:55;;;;;;;17.80;13.00;;;;;;;;;;5082595;28;20132;-82
2023/05/08 14:40:22;;;;;;;15.70;13.25;;;;;;;;;;5082758;28;20127;-82